createdAt,value
2018-08-11T00:00:28.115Z,15.10
2018-08-11T00:02:56.308Z,15.10
2018-08-11T00:05:24.604Z,15.00
2018-08-11T00:07:52.796Z,15.00
2018-08-11T00:10:21.071Z,15.00
2018-08-11T00:12:49.316Z,15.00
2018-08-11T00:15:18.570Z,15.00
2018-08-11T00:17:47.060Z,15.00
2018-08-11T00:20:20.335Z,14.90
2018-08-11T00:22:48.534Z,14.90
2018-08-11T00:25:17.002Z,14.80
2018-08-11T00:27:45.212Z,14.70
2018-08-11T00:30:15.946Z,14.80
2018-08-11T00:32:44.140Z,14.80
2018-08-11T00:35:14.415Z,14.80
2018-08-11T00:37:43.192Z,14.80
2018-08-11T00:40:13.718Z,14.80
2018-08-11T00:42:43.154Z,14.80
2018-08-11T00:45:12.736Z,14.70
2018-08-11T00:47:41.080Z,14.70
2018-08-11T00:50:12.003Z,14.70
2018-08-11T00:52:40.208Z,14.70
2018-08-11T00:55:10.114Z,14.70
2018-08-11T00:57:38.613Z,14.60
2018-08-11T01:00:10.401Z,14.60
2018-08-11T01:02:39.208Z,14.60
2018-08-11T01:05:09.396Z,14.60
2018-08-11T01:07:37.856Z,14.60
2018-08-11T01:10:06.584Z,14.60
2018-08-11T01:12:34.788Z,14.60
2018-08-11T01:15:03.032Z,14.60
2018-08-11T01:17:31.255Z,14.60
2018-08-11T01:19:59.438Z,14.60
2018-08-11T01:22:27.674Z,14.60
2018-08-11T01:24:55.918Z,14.50
2018-08-11T01:27:24.102Z,14.60
2018-08-11T01:29:52.750Z,14.60
2018-08-11T01:32:20.967Z,14.60
2018-08-11T01:34:49.134Z,14.50
2018-08-11T01:37:17.696Z,14.50
2018-08-11T01:39:45.907Z,14.50
2018-08-11T01:42:14.084Z,14.50
2018-08-11T01:44:42.303Z,14.50
2018-08-11T01:47:10.493Z,14.50
2018-08-11T01:49:38.727Z,14.50
2018-08-11T01:52:06.957Z,14.50
2018-08-11T01:54:35.144Z,14.50
2018-08-11T01:57:03.436Z,14.50
2018-08-11T01:59:31.683Z,14.50
2018-08-11T02:01:59.885Z,14.50
2018-08-11T02:04:28.060Z,14.50
2018-08-11T02:06:56.313Z,14.50
2018-08-11T02:09:24.487Z,14.50
2018-08-11T02:11:52.711Z,14.50
2018-08-11T02:14:20.886Z,14.50
2018-08-11T02:16:49.148Z,14.50
2018-08-11T02:19:17.329Z,14.50
2018-08-11T02:21:45.518Z,14.50
2018-08-11T02:24:13.703Z,14.50
2018-08-11T02:26:41.908Z,14.40
2018-08-11T02:29:10.094Z,14.40
2018-08-11T02:31:38.280Z,14.40
2018-08-11T02:34:06.727Z,14.40
2018-08-11T02:36:35.008Z,14.40
2018-08-11T02:39:03.281Z,14.40
2018-08-11T02:41:31.475Z,14.40
2018-08-11T02:43:59.645Z,14.40
2018-08-11T02:46:27.928Z,14.30
2018-08-11T02:48:56.100Z,14.30
2018-08-11T02:51:24.256Z,14.30
2018-08-11T02:53:52.446Z,14.30
2018-08-11T02:56:20.719Z,14.30
2018-08-11T02:58:48.928Z,14.30
2018-08-11T03:01:17.099Z,14.30
2018-08-11T03:03:45.293Z,14.30
2018-08-11T03:06:13.477Z,14.30
2018-08-11T03:08:41.665Z,14.30
2018-08-11T03:11:09.868Z,14.30
2018-08-11T03:13:38.059Z,14.30
2018-08-11T03:16:06.308Z,14.20
2018-08-11T03:18:34.483Z,14.20
2018-08-11T03:21:02.668Z,14.20
2018-08-11T03:23:31.016Z,14.20
2018-08-11T03:25:59.291Z,14.20
2018-08-11T03:28:27.564Z,14.10
2018-08-11T03:30:55.840Z,14.10
2018-08-11T03:33:23.997Z,14.10
2018-08-11T03:35:52.392Z,14.10
2018-08-11T03:38:20.563Z,14.10
2018-08-11T03:40:48.756Z,14.10
2018-08-11T03:43:17.015Z,14.10
2018-08-11T03:45:45.319Z,14.00
2018-08-11T03:48:13.508Z,14.00
2018-08-11T03:50:41.695Z,14.00
2018-08-11T03:53:09.863Z,14.00
2018-08-11T03:55:38.099Z,14.00
2018-08-11T03:58:06.345Z,14.00
2018-08-11T04:00:34.522Z,14.00
2018-08-11T04:03:02.713Z,14.00
2018-08-11T04:05:31.075Z,14.00
2018-08-11T04:07:59.260Z,13.90
2018-08-11T04:10:27.420Z,13.90
2018-08-11T04:12:55.603Z,13.90
2018-08-11T04:15:23.880Z,13.90
2018-08-11T04:17:52.080Z,13.90
2018-08-11T04:20:20.269Z,13.90
2018-08-11T04:22:48.509Z,13.90
2018-08-11T04:25:16.778Z,13.90
2018-08-11T04:27:44.991Z,13.90
2018-08-11T04:30:13.443Z,13.90
2018-08-11T04:32:41.635Z,13.80
2018-08-11T04:35:09.927Z,13.80
2018-08-11T04:37:38.113Z,13.80
2018-08-11T04:40:06.357Z,13.80
2018-08-11T04:42:34.839Z,13.80
2018-08-11T04:45:03.106Z,13.80
2018-08-11T04:47:31.292Z,13.80
2018-08-11T04:49:59.485Z,13.80
2018-08-11T04:52:27.696Z,13.70
2018-08-11T04:54:55.972Z,13.70
2018-08-11T04:57:24.152Z,13.70
2018-08-11T04:59:52.380Z,13.70
2018-08-11T05:02:20.553Z,13.70
2018-08-11T05:04:48.735Z,13.70
2018-08-11T05:07:16.956Z,13.70
2018-08-11T05:09:45.170Z,13.70
2018-08-11T05:12:13.347Z,13.70
2018-08-11T05:14:41.558Z,13.70
2018-08-11T05:17:09.856Z,13.70
2018-08-11T05:19:38.063Z,13.70
2018-08-11T05:22:06.356Z,13.70
2018-08-11T05:24:35.041Z,13.70
2018-08-11T05:27:03.395Z,13.70
2018-08-11T05:29:32.145Z,13.80
2018-08-11T05:32:00.656Z,13.80
2018-08-11T05:34:29.244Z,13.80
2018-08-11T05:36:57.507Z,13.80
2018-08-11T05:42:00.404Z,13.80
2018-08-11T05:44:28.599Z,13.90
2018-08-11T05:46:56.864Z,13.90
2018-08-11T05:49:25.080Z,13.90
2018-08-11T05:51:53.271Z,13.90
2018-08-11T05:54:21.452Z,14.00
2018-08-11T05:56:49.756Z,14.00
2018-08-11T05:59:18.025Z,14.00
2018-08-11T06:01:46.261Z,14.00
2018-08-11T06:04:14.475Z,14.00
2018-08-11T06:06:42.847Z,14.00
2018-08-11T06:09:11.304Z,14.10
2018-08-11T06:11:39.806Z,14.10
2018-08-11T06:14:08.752Z,14.20
2018-08-11T06:16:37.179Z,14.20
2018-08-11T06:19:05.762Z,14.20
2018-08-11T06:21:34.096Z,14.30
2018-08-11T06:24:02.324Z,14.30
2018-08-11T06:26:30.604Z,14.40
2018-08-11T06:28:58.764Z,14.60
2018-08-11T06:31:27.124Z,14.70
2018-08-11T06:33:55.217Z,14.90
2018-08-11T06:36:23.601Z,14.90
2018-08-11T06:38:52.039Z,15.00
2018-08-11T06:41:20.223Z,15.00
2018-08-11T06:43:48.416Z,15.00
2018-08-11T06:46:16.759Z,15.10
2018-08-11T06:48:44.952Z,15.10
2018-08-11T06:51:13.159Z,15.10
2018-08-11T06:53:41.356Z,15.30
2018-08-11T06:56:10.184Z,15.40
2018-08-11T06:58:38.747Z,15.60
2018-08-11T07:01:06.979Z,15.70
2018-08-11T07:03:35.167Z,15.80
2018-08-11T07:06:03.468Z,15.90
2018-08-11T07:08:31.691Z,16.10
2018-08-11T07:10:59.904Z,16.20
2018-08-11T07:13:28.180Z,16.30
2018-08-11T07:15:56.437Z,16.40
2018-08-11T07:18:24.694Z,16.50
2018-08-11T07:20:52.873Z,16.70
2018-08-11T07:23:21.108Z,16.70
2018-08-11T07:25:49.421Z,16.80
2018-08-11T07:28:17.693Z,16.90
2018-08-11T07:30:45.912Z,17.00
2018-08-11T07:33:14.548Z,17.00
2018-08-11T07:35:42.831Z,17.00
2018-08-11T07:38:11.065Z,17.10
2018-08-11T07:40:39.360Z,17.00
2018-08-11T07:43:07.584Z,17.10
2018-08-11T07:45:35.886Z,17.10
2018-08-11T07:48:04.512Z,17.10
2018-08-11T07:50:32.709Z,17.20
2018-08-11T07:53:00.915Z,17.20
2018-08-11T07:55:29.236Z,17.20
2018-08-11T07:57:57.536Z,17.20
2018-08-11T08:00:25.743Z,17.20
2018-08-11T08:02:53.979Z,17.20
2018-08-11T08:05:22.289Z,17.30
2018-08-11T08:07:50.550Z,17.30
2018-08-11T08:10:18.879Z,17.40
2018-08-11T08:12:47.119Z,17.40
2018-08-11T08:15:15.369Z,17.40
2018-08-11T08:17:43.568Z,17.50
2018-08-11T08:20:11.744Z,17.50
2018-08-11T08:22:39.947Z,17.60
2018-08-11T08:25:08.204Z,17.60
2018-08-11T08:27:36.697Z,17.70
2018-08-11T08:30:07.693Z,17.70
2018-08-11T08:32:35.948Z,17.80
2018-08-11T08:35:04.316Z,17.80
2018-08-11T08:37:32.636Z,17.90
2018-08-11T08:40:00.896Z,17.90
2018-08-11T08:42:29.086Z,17.90
2018-08-11T08:44:57.334Z,17.90
2018-08-11T08:47:25.565Z,18.00
2018-08-11T08:49:53.772Z,18.00
2018-08-11T08:52:21.964Z,18.00
2018-08-11T08:54:50.162Z,18.10
2018-08-11T08:57:18.669Z,18.20
2018-08-11T08:59:46.873Z,18.20
2018-08-11T09:02:15.139Z,18.30
2018-08-11T09:04:43.329Z,18.30
2018-08-11T09:07:11.513Z,18.40
2018-08-11T09:09:39.737Z,18.40
2018-08-11T09:12:08.072Z,18.50
2018-08-11T09:14:36.192Z,18.60
2018-08-11T09:17:04.415Z,18.60
2018-08-11T09:19:32.653Z,18.70
2018-08-11T09:22:00.832Z,18.70
2018-08-11T09:24:29.051Z,18.80
2018-08-11T09:26:57.297Z,18.80
2018-08-11T09:29:25.492Z,18.90
2018-08-11T09:31:53.740Z,18.90
2018-08-11T09:34:21.932Z,18.90
2018-08-11T09:36:50.196Z,19.00
2018-08-11T09:39:18.400Z,19.00
2018-08-11T09:41:46.613Z,19.10
2018-08-11T09:44:14.937Z,19.20
2018-08-11T09:46:43.195Z,19.20
2018-08-11T09:49:11.387Z,19.30
2018-08-11T09:51:39.602Z,19.40
2018-08-11T09:54:07.868Z,19.40
2018-08-11T09:56:36.108Z,19.50
2018-08-11T09:59:04.316Z,19.60
2018-08-11T10:01:37.897Z,19.60
2018-08-11T10:04:06.091Z,19.60
2018-08-11T10:06:34.307Z,19.70
2018-08-11T10:09:02.499Z,19.70
2018-08-11T10:11:30.710Z,19.70
2018-08-11T10:13:58.931Z,19.80
2018-08-11T10:16:27.235Z,19.90
2018-08-11T10:18:55.400Z,19.90
2018-08-11T10:21:23.685Z,20.00
2018-08-11T10:23:51.924Z,20.10
2018-08-11T10:26:20.271Z,20.10
2018-08-11T10:28:48.470Z,20.20
2018-08-11T10:31:16.693Z,20.20
2018-08-11T10:33:44.882Z,20.30
2018-08-11T10:36:13.111Z,20.40
2018-08-11T10:38:41.324Z,20.50
2018-08-11T10:41:09.512Z,20.60
2018-08-11T10:43:37.688Z,20.70
2018-08-11T10:46:05.999Z,20.80
2018-08-11T10:48:34.196Z,20.80
2018-08-11T10:51:02.387Z,20.90
2018-08-11T10:53:30.643Z,21.00
2018-08-11T10:55:58.918Z,21.10
2018-08-11T10:58:27.071Z,21.20
2018-08-11T11:00:55.264Z,21.30
2018-08-11T11:03:23.432Z,21.40
2018-08-11T11:05:51.704Z,21.40
2018-08-11T11:08:19.979Z,21.50
2018-08-11T11:10:48.137Z,21.50
2018-08-11T11:13:16.320Z,21.50
2018-08-11T11:15:44.615Z,21.60
2018-08-11T11:18:12.783Z,21.60
2018-08-11T11:20:41.045Z,21.60
2018-08-11T11:23:09.196Z,21.70
2018-08-11T11:25:37.431Z,21.70
2018-08-11T11:28:05.632Z,21.70
2018-08-11T11:30:33.848Z,21.70
2018-08-11T11:33:02.057Z,21.80
2018-08-11T11:35:30.332Z,21.80
2018-08-11T11:37:58.784Z,21.90
2018-08-11T11:40:26.996Z,21.80
2018-08-11T11:42:55.188Z,21.90
2018-08-11T11:45:23.399Z,22.00
2018-08-11T11:47:51.620Z,22.00
2018-08-11T11:50:20.852Z,22.10
2018-08-11T11:52:49.079Z,22.10
2018-08-11T11:55:17.317Z,22.10
2018-08-11T11:57:45.522Z,22.20
2018-08-11T12:00:13.724Z,22.20
2018-08-11T12:02:41.910Z,22.30
2018-08-11T12:05:10.116Z,22.30
2018-08-11T12:07:38.321Z,22.40
2018-08-11T12:10:06.511Z,22.50
2018-08-11T12:12:34.699Z,22.60
2018-08-11T12:15:02.936Z,22.60
2018-08-11T12:17:31.129Z,22.60
2018-08-11T12:19:59.344Z,22.60
2018-08-11T12:22:27.672Z,22.70
2018-08-11T12:24:55.962Z,22.70
2018-08-11T12:27:24.163Z,22.70
2018-08-11T12:29:52.356Z,22.70
2018-08-11T12:32:20.588Z,22.70
2018-08-11T12:34:48.864Z,22.80
2018-08-11T12:37:17.050Z,22.70
2018-08-11T12:39:45.256Z,22.70
2018-08-11T12:42:13.535Z,22.70
2018-08-11T12:44:41.934Z,22.70
2018-08-11T12:47:10.241Z,22.70
2018-08-11T12:49:38.432Z,22.80
2018-08-11T12:52:06.672Z,22.80
2018-08-11T12:54:34.875Z,22.90
2018-08-11T12:57:03.144Z,22.90
2018-08-11T12:59:31.503Z,23.00
2018-08-11T13:01:59.672Z,23.00
2018-08-11T13:04:27.911Z,23.00
2018-08-11T13:06:56.276Z,23.00
2018-08-11T13:09:24.540Z,23.00
2018-08-11T13:11:52.716Z,23.10
2018-08-11T13:14:21.015Z,23.00
2018-08-11T13:16:49.352Z,23.10
2018-08-11T13:19:18.149Z,23.10
2018-08-11T13:21:46.423Z,23.20
2018-08-11T13:24:14.627Z,23.20
2018-08-11T13:26:42.986Z,23.20
2018-08-11T13:29:11.240Z,23.20
2018-08-11T13:31:39.412Z,23.20
2018-08-11T13:34:07.931Z,23.30
2018-08-11T13:36:36.229Z,23.40
2018-08-11T13:39:07.403Z,23.40
2018-08-11T13:41:43.731Z,23.50
2018-08-11T13:44:12.176Z,23.60
2018-08-11T13:46:40.472Z,23.60
2018-08-11T13:49:09.279Z,23.60
2018-08-11T13:51:38.003Z,23.60
2018-08-11T13:54:06.609Z,23.70
2018-08-11T13:56:35.193Z,23.70
2018-08-11T13:59:03.415Z,23.70
2018-08-11T14:01:31.798Z,23.80
2018-08-11T14:03:59.992Z,23.90
2018-08-11T14:06:28.224Z,23.90
2018-08-11T14:08:56.452Z,24.00
2018-08-11T14:11:25.278Z,24.10
2018-08-11T14:13:53.468Z,24.10
2018-08-11T14:16:21.783Z,24.10
2018-08-11T14:18:49.989Z,24.00
2018-08-11T14:21:18.203Z,24.10
2018-08-11T14:23:46.401Z,24.10
2018-08-11T14:26:14.635Z,24.10
2018-08-11T14:28:42.826Z,24.20
2018-08-11T14:31:11.043Z,24.20
2018-08-11T14:33:39.343Z,24.20
2018-08-11T14:36:07.635Z,24.20
2018-08-11T14:38:35.942Z,24.20
2018-08-11T14:41:04.124Z,24.10
2018-08-11T14:43:32.361Z,24.00
2018-08-11T14:46:00.672Z,24.10
2018-08-11T14:48:28.983Z,24.20
2018-08-11T14:50:57.264Z,24.20
2018-08-11T14:53:25.464Z,24.30
2018-08-11T14:55:53.747Z,24.30
2018-08-11T14:58:21.943Z,24.40
2018-08-11T15:00:50.147Z,24.40
2018-08-11T15:03:18.352Z,24.50
2018-08-11T15:05:46.695Z,24.50
2018-08-11T15:08:14.886Z,24.50
2018-08-11T15:10:43.070Z,24.60
2018-08-11T15:13:11.257Z,24.60
2018-08-11T15:15:39.587Z,24.60
2018-08-11T15:18:07.798Z,24.60
2018-08-11T15:20:36.358Z,24.60
2018-08-11T15:23:04.662Z,24.60
2018-08-11T15:25:32.960Z,24.60
2018-08-11T15:28:01.286Z,24.70
2018-08-11T15:30:29.399Z,24.80
2018-08-11T15:32:57.592Z,24.80
2018-08-11T15:35:25.937Z,24.80
2018-08-11T15:37:54.115Z,24.70
2018-08-11T15:40:22.287Z,24.80
2018-08-11T15:42:50.466Z,24.80
2018-08-11T15:45:18.783Z,24.80
2018-08-11T15:47:47.063Z,24.90
2018-08-11T15:50:16.115Z,24.90
2018-08-11T15:52:44.296Z,25.00
2018-08-11T15:55:12.588Z,25.00
2018-08-11T15:57:40.796Z,25.10
2018-08-11T16:00:09.105Z,25.10
2018-08-11T16:02:37.564Z,25.10
2018-08-11T16:05:05.831Z,24.90
2018-08-11T16:07:34.005Z,24.90
2018-08-11T16:10:02.175Z,25.00
2018-08-11T16:12:30.384Z,25.10
2018-08-11T16:14:58.711Z,25.10
2018-08-11T16:17:26.894Z,25.10
2018-08-11T16:19:55.131Z,25.10
2018-08-11T16:22:23.389Z,25.10
2018-08-11T16:24:51.596Z,25.20
2018-08-11T16:27:19.824Z,25.20
2018-08-11T16:29:48.006Z,25.20
2018-08-11T16:32:16.239Z,25.30
2018-08-11T16:34:44.420Z,25.30
2018-08-11T16:37:12.652Z,25.30
2018-08-11T16:39:40.840Z,25.30
2018-08-11T16:42:09.189Z,25.20
2018-08-11T16:44:37.364Z,25.20
2018-08-11T16:47:05.659Z,25.30
2018-08-11T16:49:33.869Z,25.30
2018-08-11T16:52:02.358Z,25.20
2018-08-11T16:54:30.607Z,25.20
2018-08-11T16:56:58.884Z,25.10
2018-08-11T16:59:27.104Z,25.10
2018-08-11T17:01:55.333Z,25.00
2018-08-11T17:04:23.508Z,24.90
2018-08-11T17:06:51.776Z,24.90
2018-08-11T17:09:19.949Z,24.90
2018-08-11T17:11:48.151Z,24.80
2018-08-11T17:14:16.336Z,24.70
2018-08-11T17:16:44.655Z,24.50
2018-08-11T17:19:12.843Z,24.50
2018-08-11T17:21:41.103Z,24.40
2018-08-11T17:24:09.312Z,24.30
2018-08-11T17:26:37.560Z,24.20
2018-08-11T17:29:05.763Z,24.20
2018-08-11T17:31:33.973Z,24.00
2018-08-11T17:34:02.160Z,24.00
2018-08-11T17:36:30.456Z,23.80
2018-08-11T17:38:59.189Z,23.80
2018-08-11T17:41:27.436Z,23.70
2018-08-11T17:43:55.693Z,23.60
2018-08-11T17:46:24.040Z,23.50
2018-08-11T17:48:52.544Z,23.40
2018-08-11T17:51:21.216Z,23.30
2018-08-11T17:53:49.439Z,23.30
2018-08-11T17:56:17.684Z,23.20
2018-08-11T17:58:45.891Z,23.20
2018-08-11T18:01:14.164Z,23.10
2018-08-11T18:03:42.409Z,23.00
2018-08-11T18:06:10.676Z,23.00
2018-08-11T18:08:38.936Z,22.90
2018-08-11T18:11:07.213Z,22.80
2018-08-11T18:13:35.430Z,22.70
2018-08-11T18:16:03.687Z,22.60
2018-08-11T18:18:31.890Z,22.50
2018-08-11T18:21:00.072Z,22.40
2018-08-11T18:23:28.269Z,22.40
2018-08-11T18:25:56.613Z,22.30
2018-08-11T18:28:24.896Z,22.30
2018-08-11T18:30:53.090Z,22.20
2018-08-11T18:33:21.388Z,22.20
2018-08-11T18:35:49.703Z,22.10
2018-08-11T18:38:17.976Z,22.10
2018-08-11T18:40:46.173Z,22.10
2018-08-11T18:43:14.379Z,22.00
2018-08-11T18:45:42.763Z,21.90
2018-08-11T18:48:10.991Z,21.80
2018-08-11T18:50:39.300Z,21.80
2018-08-11T18:53:07.703Z,21.70
2018-08-11T18:55:36.076Z,21.60
2018-08-11T18:58:04.299Z,21.60
2018-08-11T19:00:32.583Z,21.50
2018-08-11T19:03:00.788Z,21.50
2018-08-11T19:05:29.093Z,21.60
2018-08-11T19:07:57.276Z,21.40
2018-08-11T19:10:25.467Z,21.30
2018-08-11T19:12:53.722Z,21.30
2018-08-11T19:15:21.971Z,21.20
2018-08-11T19:17:50.161Z,21.10
2018-08-11T19:20:18.353Z,21.00
2018-08-11T19:22:46.715Z,21.00
2018-08-11T19:25:14.987Z,20.90
2018-08-11T19:27:43.258Z,20.80
2018-08-11T19:30:11.800Z,20.80
2018-08-11T19:32:40.529Z,20.70
2018-08-11T19:35:09.340Z,20.60
2018-08-11T19:37:37.956Z,20.60
2018-08-11T19:40:07.086Z,20.50
2018-08-11T19:42:37.019Z,20.30
2018-08-11T19:45:09.465Z,20.30
2018-08-11T19:47:37.699Z,20.20
2018-08-11T19:50:06.742Z,20.10
2018-08-11T19:52:35.291Z,20.00
2018-08-11T19:55:03.560Z,20.00
2018-08-11T19:57:31.778Z,19.90
2018-08-11T20:00:00.000Z,19.80
2018-08-11T20:02:28.165Z,19.70
2018-08-11T20:04:56.411Z,19.60
2018-08-11T20:07:24.618Z,19.50
2018-08-11T20:09:52.822Z,19.40
2018-08-11T20:12:21.021Z,19.30
2018-08-11T20:14:49.296Z,19.20
2018-08-11T20:17:17.510Z,19.20
2018-08-11T20:19:45.760Z,19.10
2018-08-11T20:22:16.900Z,19.10
2018-08-11T20:24:45.239Z,19.00
2018-08-11T20:27:13.861Z,18.90
2018-08-11T20:29:42.433Z,18.80
2018-08-11T20:32:12.224Z,18.80
2018-08-11T20:34:41.307Z,18.70
2018-08-11T20:37:10.307Z,18.60
2018-08-11T20:39:38.524Z,18.60
2018-08-11T20:42:07.048Z,18.50
2018-08-11T20:44:35.296Z,18.50
2018-08-11T20:47:03.560Z,18.40
2018-08-11T20:49:31.762Z,18.40
2018-08-11T20:51:59.984Z,18.30
2018-08-11T20:54:28.300Z,18.20
2018-08-11T20:56:56.660Z,18.10
2018-08-11T20:59:24.852Z,18.10
2018-08-11T21:01:53.090Z,18.00
2018-08-11T21:04:21.264Z,18.00
2018-08-11T21:06:49.570Z,17.90
2018-08-11T21:09:17.796Z,17.90
2018-08-11T21:11:46.012Z,17.80
2018-08-11T21:14:14.196Z,17.80
2018-08-11T21:16:42.454Z,17.70
2018-08-11T21:19:10.651Z,17.70
2018-08-11T21:21:38.893Z,17.60
2018-08-11T21:24:07.087Z,17.60
2018-08-11T21:26:35.373Z,17.50
2018-08-11T21:29:03.563Z,17.50
2018-08-11T21:31:31.781Z,17.40
2018-08-11T21:34:00.005Z,17.40
2018-08-11T21:36:28.236Z,17.40
2018-08-11T21:38:56.444Z,17.30
2018-08-11T21:41:24.645Z,17.30
2018-08-11T21:43:52.840Z,17.30
2018-08-11T21:46:21.130Z,17.20
2018-08-11T21:48:49.334Z,17.20
2018-08-11T21:51:17.561Z,17.20
2018-08-11T21:53:45.756Z,17.10
2018-08-11T21:56:14.027Z,17.10
2018-08-11T21:58:42.208Z,17.10
2018-08-11T22:01:12.956Z,17.00
2018-08-11T22:03:41.991Z,17.00
2018-08-11T22:06:10.368Z,17.00
2018-08-11T22:08:38.535Z,16.90
2018-08-11T22:11:06.752Z,16.90
2018-08-11T22:13:35.086Z,16.90
2018-08-11T22:16:04.187Z,16.90
2018-08-11T22:18:32.435Z,16.80
2018-08-11T22:21:00.699Z,16.80
2018-08-11T22:23:29.003Z,16.80
2018-08-11T22:25:57.374Z,16.80
2018-08-11T22:28:25.556Z,16.70
2018-08-11T22:30:53.865Z,16.70
2018-08-11T22:33:22.066Z,16.70
2018-08-11T22:35:50.506Z,16.60
2018-08-11T22:38:18.556Z,16.60
2018-08-11T22:40:46.820Z,16.60
2018-08-11T22:43:15.013Z,16.60
2018-08-11T22:45:43.330Z,16.60
2018-08-11T22:48:11.556Z,16.50
2018-08-11T22:50:39.755Z,16.50
2018-08-11T22:53:07.955Z,16.50
2018-08-11T22:55:36.231Z,16.50
2018-08-11T22:58:04.487Z,16.50
2018-08-11T23:00:32.690Z,16.40
2018-08-11T23:03:00.898Z,16.40
2018-08-11T23:05:29.252Z,16.40
2018-08-11T23:07:57.449Z,16.40
2018-08-11T23:10:25.635Z,16.30
2018-08-11T23:12:53.824Z,16.30
2018-08-11T23:15:22.102Z,16.30
2018-08-11T23:17:50.884Z,16.30
2018-08-11T23:20:19.068Z,16.30
2018-08-11T23:22:47.291Z,16.20
2018-08-11T23:25:16.040Z,16.20
2018-08-11T23:27:44.476Z,16.20
2018-08-11T23:30:14.604Z,16.20
2018-08-11T23:32:43.221Z,16.20
2018-08-11T23:35:12.024Z,16.20
2018-08-11T23:37:40.671Z,16.20
2018-08-11T23:40:09.917Z,16.20
2018-08-11T23:42:38.569Z,16.10
2018-08-11T23:45:10.419Z,16.10
2018-08-11T23:47:39.021Z,16.10
2018-08-11T23:50:07.933Z,16.10
2018-08-11T23:52:36.145Z,16.10
2018-08-11T23:55:05.492Z,16.10
2018-08-11T23:57:33.883Z,16.00
